Time;durP1;ratioP1;P1;durP2;ratioP2;P2;SDS_P1;SDS_P2;PMS_P1;PMS_P2;Temp;Humidity;BMP_temperature;BMP_pressure;BME280_temperature;BME280_humidity;BME280_pressure;Samples;Min_cycle;Max_cycle;Signal;HPM_P1;HPM_P2
2021/08/30 00:02:18;;;;;;;6.00;3.40;;;14.30;99.90;;;;;;5040295;28;20060;-83
2021/08/30 00:04:45;;;;;;;7.28;3.30;;;14.30;99.90;;;;;;5029570;28;20041;-82
2021/08/30 00:07:12;;;;;;;5.35;3.22;;;14.30;99.90;;;;;;5039292;28;20502;-82
2021/08/30 00:09:40;;;;;;;5.32;3.05;;;14.30;99.90;;;;;;5049647;28;20491;-82
2021/08/30 00:12:08;;;;;;;7.35;3.22;;;14.40;99.90;;;;;;5049690;28;20128;-83
2021/08/30 00:14:38;;;;;;;6.20;3.38;;;14.40;99.90;;;;;;5048990;28;20410;-82
2021/08/30 00:17:05;;;;;;;5.00;3.28;;;14.40;99.90;;;;;;5044465;28;20059;-82
2021/08/30 00:19:33;;;;;;;5.40;3.45;;;14.40;99.90;;;;;;5032664;28;20148;-83
2021/08/30 00:22:01;;;;;;;5.47;3.70;;;14.40;99.90;;;;;;5029521;28;20068;-82
2021/08/30 00:24:28;;;;;;;5.70;3.60;;;14.40;99.90;;;;;;5035949;28;20049;-82
2021/08/30 00:26:56;;;;;;;6.30;3.50;;;14.40;99.90;;;;;;5035380;28;20059;-83
2021/08/30 00:29:25;;;;;;;5.60;3.63;;;14.40;99.90;;;;;;5029713;28;20247;-82
2021/08/30 00:31:54;;;;;;;5.88;3.47;;;14.40;99.90;;;;;;5041855;28;20056;-82
2021/08/30 00:34:22;;;;;;;6.40;3.42;;;14.40;99.90;;;;;;5034628;28;20491;-83
2021/08/30 00:36:49;;;;;;;5.65;3.65;;;14.40;99.90;;;;;;5041360;28;20397;-83
2021/08/30 00:39:17;;;;;;;6.82;4.30;;;14.40;99.90;;;;;;5037071;28;20128;-83
2021/08/30 00:41:44;;;;;;;7.40;3.65;;;14.40;99.90;;;;;;5037950;28;20124;-83
2021/08/30 00:44:11;;;;;;;6.38;3.65;;;14.40;99.90;;;;;;5029527;28;20141;-83
2021/08/30 00:46:38;;;;;;;6.47;3.63;;;14.40;99.90;;;;;;5038752;28;20045;-83
2021/08/30 00:49:06;;;;;;;6.00;3.70;;;14.40;99.90;;;;;;5029036;28;20045;-83
2021/08/30 00:51:34;;;;;;;7.05;3.75;;;14.40;99.90;;;;;;5029286;28;20072;-82
2021/08/30 00:54:01;;;;;;;5.30;3.67;;;14.40;99.90;;;;;;5030167;28;20053;-83
2021/08/30 00:56:28;;;;;;;7.05;4.40;;;14.40;99.90;;;;;;5043102;28;20120;-82
2021/08/30 00:58:56;;;;;;;5.90;3.70;;;14.40;99.90;;;;;;5037851;28;20128;-82
2021/08/30 01:01:24;;;;;;;5.85;3.80;;;14.40;99.90;;;;;;5048773;28;20287;-83
2021/08/30 01:03:53;;;;;;;6.90;3.60;;;14.40;99.90;;;;;;5049060;28;20406;-83
2021/08/30 01:06:36;;;;;;;5.35;3.47;;;14.40;99.90;;;;;;5041423;28;20063;-83
2021/08/30 01:09:13;;;;;;;9.77;4.77;;;14.40;99.90;;;;;;5045270;28;20067;-84
2021/08/30 01:11:51;;;;;;;7.60;3.80;;;14.40;99.90;;;;;;5037307;28;20042;-83
2021/08/30 01:14:22;;;;;;;7.05;4.15;;;14.40;99.90;;;;;;5028781;28;20048;-84
2021/08/30 01:16:50;;;;;;;5.63;3.70;;;14.40;99.90;;;;;;5043478;28;20053;-83
2021/08/30 01:19:26;;;;;;;7.35;3.90;;;14.40;99.90;;;;;;5053074;28;20052;-84
2021/08/30 01:21:54;;;;;;;6.65;3.67;;;14.40;99.90;;;;;;5052770;28;20044;-84
2021/08/30 01:24:22;;;;;;;6.35;4.03;;;14.40;99.90;;;;;;5052642;28;20135;-84
2021/08/30 01:26:54;;;;;;;6.93;4.10;;;14.40;99.90;;;;;;5052323;28;20068;-84
2021/08/30 01:29:28;;;;;;;6.13;3.90;;;14.40;99.90;;;;;;5052788;28;20048;-84
2021/08/30 01:31:57;;;;;;;7.70;3.70;;;14.30;99.90;;;;;;5054465;28;20128;-83
2021/08/30 01:34:29;;;;;;;5.82;3.80;;;14.40;99.90;;;;;;5056342;28;20049;-83
2021/08/30 01:36:57;;;;;;;6.03;3.80;;;14.40;99.90;;;;;;5055289;28;20051;-83
2021/08/30 01:39:30;;;;;;;5.53;3.50;;;14.40;99.90;;;;;;5036791;28;20525;-83
2021/08/30 01:41:58;;;;;;;7.28;3.35;;;14.40;99.90;;;;;;5036348;28;20505;-83
2021/08/30 01:44:26;;;;;;;5.25;3.33;;;14.30;99.90;;;;;;5034446;28;20045;-83
2021/08/30 01:46:54;;;;;;;6.25;3.10;;;14.40;99.90;;;;;;5034585;28;20717;-83
2021/08/30 01:49:26;;;;;;;5.68;3.20;;;14.40;99.90;;;;;;5049520;28;20071;-83
2021/08/30 01:51:54;;;;;;;4.95;3.10;;;14.40;99.90;;;;;;5056170;28;20048;-82
2021/08/30 01:54:24;;;;;;;6.53;3.03;;;14.40;99.90;;;;;;5049865;28;20052;-83
2021/08/30 01:56:54;;;;;;;4.65;2.88;;;14.40;99.90;;;;;;5046253;28;20053;-83
2021/08/30 02:02:08;;;;;;;4.47;2.75;;;14.40;99.90;;;;;;5055965;28;20064;-83
2021/08/30 02:04:38;;;;;;;5.70;2.70;;;14.40;99.90;;;;;;5055787;28;20474;-83
2021/08/30 02:07:06;;;;;;;5.35;2.80;;;14.40;99.90;;;;;;5039628;28;20056;-83
2021/08/30 02:09:33;;;;;;;5.15;2.78;;;14.40;99.90;;;;;;5035795;28;20406;-83
2021/08/30 02:12:01;;;;;;;4.68;3.25;;;14.40;99.90;;;;;;5035758;28;20410;-83
2021/08/30 02:14:28;;;;;;;5.35;2.88;;;14.40;99.90;;;;;;5039897;28;20141;-83
2021/08/30 02:17:01;;;;;;;4.85;2.83;;;14.40;99.90;;;;;;5046039;28;20049;-82
2021/08/30 02:19:44;;;;;;;4.15;2.60;;;14.40;99.90;;;;;;5035901;28;20137;-83
2021/08/30 02:22:16;;;;;;;3.85;2.45;;;14.40;99.90;;;;;;5036827;28;20041;-83
2021/08/30 02:24:50;;;;;;;5.68;2.50;;;14.40;99.90;;;;;;5043013;28;20049;-83
2021/08/30 02:27:27;;;;;;;4.93;2.97;;;14.40;99.90;;;;;;5055359;28;20414;-83
2021/08/30 02:30:02;;;;;;;4.15;2.60;;;14.40;99.90;;;;;;5055701;28;20143;-82
2021/08/30 02:32:30;;;;;;;4.70;2.97;;;14.40;99.90;;;;;;5054755;28;20045;-83
2021/08/30 02:35:02;;;;;;;4.20;2.70;;;14.40;99.90;;;;;;5055408;28;20048;-83
2021/08/30 02:37:33;;;;;;;4.18;2.63;;;14.40;99.90;;;;;;5051785;28;20045;-83
2021/08/30 02:40:01;;;;;;;5.88;2.97;;;14.40;99.90;;;;;;5035537;28;20048;-83
2021/08/30 02:42:32;;;;;;;4.00;2.60;;;14.40;99.90;;;;;;5038341;28;20041;-84
2021/08/30 02:44:59;;;;;;;4.68;2.90;;;14.40;99.90;;;;;;5055249;28;20123;-83
2021/08/30 02:47:28;;;;;;;5.15;2.70;;;14.40;99.90;;;;;;5055073;28;20076;-82
2021/08/30 02:49:58;;;;;;;4.45;2.90;;;14.40;99.90;;;;;;5050969;28;20049;-82
2021/08/30 02:52:26;;;;;;;5.57;2.60;;;14.40;99.90;;;;;;5048927;28;20044;-83
2021/08/30 02:54:54;;;;;;;4.85;2.60;;;14.40;99.90;;;;;;5054963;28;20040;-83
2021/08/30 02:57:23;;;;;;;4.20;2.72;;;14.40;99.90;;;;;;5035815;28;20060;-83
2021/08/30 02:59:51;;;;;;;4.65;2.80;;;14.40;99.90;;;;;;5034928;28;20136;-83
2021/08/30 03:02:21;;;;;;;4.30;2.58;;;14.40;99.90;;;;;;5038382;28;20407;-83
2021/08/30 03:04:49;;;;;;;4.10;2.38;;;14.40;99.90;;;;;;5052417;28;20153;-83
2021/08/30 03:07:18;;;;;;;4.53;2.50;;;14.30;99.90;;;;;;5050367;28;20053;-83
2021/08/30 03:09:46;;;;;;;5.05;2.33;;;14.40;99.90;;;;;;5030759;28;20140;-83
2021/08/30 03:12:16;;;;;;;4.28;2.33;;;14.30;99.90;;;;;;5038539;28;20052;-84
2021/08/30 03:14:46;;;;;;;5.82;2.47;;;14.30;99.90;;;;;;5036879;28;20041;-83
2021/08/30 03:17:15;;;;;;;4.22;2.40;;;14.30;99.90;;;;;;5050768;28;20445;-83
2021/08/30 03:19:46;;;;;;;3.97;2.53;;;14.20;99.90;;;;;;5031202;28;20041;-83
2021/08/30 03:22:16;;;;;;;4.45;3.10;;;14.30;99.90;;;;;;5033790;28;20045;-83
2021/08/30 03:24:45;;;;;;;4.53;2.90;;;14.30;99.90;;;;;;5038684;28;20056;-84
2021/08/30 03:27:15;;;;;;;4.70;2.90;;;14.20;99.90;;;;;;5050836;28;20045;-83
2021/08/30 03:29:44;;;;;;;4.15;2.63;;;14.30;99.90;;;;;;5050806;28;20053;-83
2021/08/30 03:32:15;;;;;;;4.75;3.00;;;14.30;99.90;;;;;;5046964;28;20041;-83
2021/08/30 03:34:43;;;;;;;5.18;3.13;;;14.30;99.90;;;;;;5030753;28;20056;-83
2021/08/30 03:37:11;;;;;;;5.20;3.05;;;14.30;99.90;;;;;;5031002;28;20067;-82
2021/08/30 03:39:41;;;;;;;6.40;2.90;;;14.30;99.90;;;;;;5048863;28;20060;-83
2021/08/30 03:42:08;;;;;;;5.55;3.38;;;14.30;99.90;;;;;;5047444;28;20045;-81
2021/08/30 03:44:37;;;;;;;5.30;3.50;;;14.20;99.90;;;;;;5030526;28;20045;-81
2021/08/30 03:47:06;;;;;;;6.95;3.45;;;14.20;99.90;;;;;;5047050;28;20049;-81
2021/08/30 03:49:34;;;;;;;5.45;3.67;;;14.20;99.90;;;;;;5050621;28;20057;-81
2021/08/30 03:52:03;;;;;;;5.50;3.58;;;14.10;99.90;;;;;;5048811;28;20128;-82
2021/08/30 03:54:31;;;;;;;5.70;3.70;;;14.10;99.90;;;;;;5036151;28;20493;-81
2021/08/30 03:57:00;;;;;;;4.88;3.28;;;14.10;99.90;;;;;;5050334;28;20063;-81
2021/08/30 03:59:33;;;;;;;5.70;3.28;;;14.10;99.90;;;;;;5050178;28;20049;-81
2021/08/30 04:02:01;;;;;;;5.47;3.80;;;14.10;99.90;;;;;;5051155;28;20478;-81
2021/08/30 04:04:29;;;;;;;5.43;3.40;;;14.10;99.90;;;;;;5033831;28;20180;-81
2021/08/30 04:06:57;;;;;;;5.78;3.67;;;14.10;99.90;;;;;;5050054;28;20056;-82
2021/08/30 04:09:27;;;;;;;5.63;3.85;;;14.10;99.90;;;;;;5034315;28;20080;-82
2021/08/30 04:11:54;;;;;;;5.45;3.83;;;14.10;99.90;;;;;;5035712;28;20050;-82
2021/08/30 04:14:24;;;;;;;6.00;4.13;;;14.10;99.90;;;;;;5053447;28;20047;-81
2021/08/30 04:16:51;;;;;;;6.65;4.40;;;14.10;99.90;;;;;;5053457;28;20048;-81
2021/08/30 04:19:18;;;;;;;6.20;4.65;;;14.10;99.90;;;;;;5053505;28;20045;-80
2021/08/30 04:21:45;;;;;;;6.60;4.70;;;14.10;99.90;;;;;;5052395;28;20048;-84
2021/08/30 04:24:12;;;;;;;9.07;5.15;;;14.10;99.90;;;;;;5053574;28;20055;-85
2021/08/30 04:26:40;;;;;;;7.65;5.18;;;14.10;99.90;;;;;;5053712;28;20077;-84
2021/08/30 04:29:07;;;;;;;7.93;5.72;;;14.10;99.90;;;;;;5053255;28;20081;-84
2021/08/30 04:31:35;;;;;;;8.35;5.70;;;14.10;99.90;;;;;;5051860;28;20143;-83
2021/08/30 04:34:03;;;;;;;8.15;5.22;;;14.10;99.90;;;;;;5050658;28;20384;-83
2021/08/30 04:36:30;;;;;;;7.03;5.32;;;14.10;99.90;;;;;;5051740;28;20139;-83
2021/08/30 04:38:57;;;;;;;7.38;5.90;;;14.10;99.90;;;;;;5052809;28;20095;-84
2021/08/30 04:41:24;;;;;;;7.53;5.70;;;14.10;99.90;;;;;;5053186;28;20049;-84
2021/08/30 04:43:52;;;;;;;7.60;5.70;;;14.10;99.90;;;;;;5053047;28;20040;-84
2021/08/30 04:46:20;;;;;;;8.20;6.05;;;14.10;99.90;;;;;;5053026;28;20045;-84
2021/08/30 04:48:48;;;;;;;6.95;5.47;;;14.10;99.90;;;;;;5052837;28;20478;-84
2021/08/30 04:51:15;;;;;;;7.55;5.80;;;14.10;99.90;;;;;;5052147;28;20064;-83
2021/08/30 04:53:42;;;;;;;8.88;6.07;;;14.10;99.90;;;;;;5053051;28;20044;-84
2021/08/30 04:56:09;;;;;;;7.47;5.50;;;14.10;99.90;;;;;;5052824;28;20041;-84
2021/08/30 04:58:37;;;;;;;8.90;6.15;;;14.10;99.90;;;;;;5052900;28;20055;-83
2021/08/30 05:01:04;;;;;;;7.57;5.70;;;14.20;99.90;;;;;;5052865;28;20483;-85
2021/08/30 05:03:31;;;;;;;7.65;5.95;;;14.20;99.90;;;;;;5052708;28;20055;-84
2021/08/30 05:05:59;;;;;;;7.15;5.65;;;14.20;99.90;;;;;;5052975;28;20051;-84
2021/08/30 05:08:26;;;;;;;7.07;5.53;;;14.10;99.90;;;;;;5052869;28;20067;-84
2021/08/30 05:10:53;;;;;;;6.85;5.43;;;14.20;99.90;;;;;;5052668;28;20055;-84
2021/08/30 05:13:21;;;;;;;8.27;5.82;;;14.20;99.90;;;;;;5052318;28;20174;-83
2021/08/30 05:15:48;;;;;;;6.70;5.50;;;14.20;99.90;;;;;;5052585;28;20053;-83
2021/08/30 05:18:15;;;;;;;7.97;5.78;;;14.20;99.90;;;;;;5052818;28;20128;-84
2021/08/30 05:20:42;;;;;;;7.70;5.93;;;14.20;99.90;;;;;;5052810;28;20413;-84
2021/08/30 05:23:11;;;;;;;8.73;6.03;;;14.20;99.90;;;;;;5052543;28;20056;-84
2021/08/30 05:25:38;;;;;;;8.70;5.63;;;14.20;99.90;;;;;;5052563;28;20475;-85
2021/08/30 05:28:05;;;;;;;10.07;6.45;;;14.20;99.90;;;;;;5052660;28;20045;-83
2021/08/30 05:30:32;;;;;;;9.00;6.22;;;14.20;99.90;;;;;;5052422;28;20422;-83
2021/08/30 05:32:59;;;;;;;9.40;6.22;;;14.20;99.90;;;;;;5052706;28;20055;-85
2021/08/30 05:35:26;;;;;;;9.93;6.90;;;14.20;99.90;;;;;;5052453;28;20422;-83
2021/08/30 05:37:53;;;;;;;10.02;6.53;;;14.20;99.90;;;;;;5052605;28;20061;-86
2021/08/30 05:40:22;;;;;;;10.10;6.93;;;14.20;99.90;;;;;;5052678;28;20055;-86
2021/08/30 05:42:49;;;;;;;10.10;7.10;;;14.20;99.90;;;;;;5052308;28;20501;-85
2021/08/30 05:45:16;;;;;;;10.32;6.65;;;14.20;99.90;;;;;;5052373;28;20573;-85
2021/08/30 05:47:43;;;;;;;8.75;6.47;;;14.20;99.90;;;;;;5052661;28;20055;-85
2021/08/30 05:50:11;;;;;;;9.80;6.38;;;14.20;99.90;;;;;;5052279;28;20504;-86
2021/08/30 05:52:38;;;;;;;8.48;6.15;;;14.20;99.90;;;;;;5052299;28;20041;-85
2021/08/30 05:55:06;;;;;;;8.73;6.25;;;14.20;99.90;;;;;;5052229;28;20053;-85
2021/08/30 05:57:35;;;;;;;8.38;6.15;;;14.30;99.90;;;;;;5051950;28;20508;-85
2021/08/30 06:00:02;;;;;;;8.48;6.10;;;14.30;99.90;;;;;;5052006;28;20475;-84
2021/08/30 06:02:29;;;;;;;8.43;5.88;;;14.30;99.90;;;;;;5053106;28;20053;-85
2021/08/30 06:04:56;;;;;;;9.07;6.38;;;14.30;99.90;;;;;;5055876;28;20049;-85
2021/08/30 06:07:23;;;;;;;10.23;6.18;;;14.40;99.90;;;;;;5055840;28;20041;-85
2021/08/30 06:09:50;;;;;;;10.05;6.32;;;14.40;99.90;;;;;;5055641;28;20041;-84
2021/08/30 06:12:17;;;;;;;9.55;6.60;;;14.40;99.90;;;;;;5055599;28;20051;-85
2021/08/30 06:14:45;;;;;;;9.10;5.60;;;14.40;99.90;;;;;;5055861;28;20049;-85
2021/08/30 06:17:12;;;;;;;9.60;6.63;;;14.40;99.90;;;;;;5055509;28;20380;-85
2021/08/30 06:19:39;;;;;;;9.45;5.90;;;14.50;99.90;;;;;;5055574;28;20047;-85
2021/08/30 06:22:08;;;;;;;8.90;6.28;;;14.50;99.90;;;;;;5055674;28;20048;-84
2021/08/30 06:24:38;;;;;;;9.32;6.00;;;14.50;99.90;;;;;;5055491;28;20052;-85
2021/08/30 06:27:05;;;;;;;8.25;5.88;;;14.60;99.90;;;;;;5055708;28;20140;-84
2021/08/30 06:29:32;;;;;;;8.85;5.90;;;14.60;99.90;;;;;;5055459;28;20494;-85
2021/08/30 06:32:00;;;;;;;8.63;5.95;;;14.60;99.90;;;;;;5055466;28;20045;-86
2021/08/30 06:34:28;;;;;;;8.75;5.63;;;14.70;99.90;;;;;;5055718;28;20045;-85
2021/08/30 06:36:55;;;;;;;9.95;6.32;;;14.70;99.90;;;;;;5054833;28;20045;-85
2021/08/30 06:39:22;;;;;;;9.63;6.35;;;14.70;99.90;;;;;;5055179;28;20053;-85
2021/08/30 06:41:48;;;;;;;8.77;6.13;;;14.80;99.90;;;;;;5055167;28;20056;-85
2021/08/30 06:44:16;;;;;;;9.60;6.28;;;14.80;99.90;;;;;;5055333;28;20045;-84
2021/08/30 06:46:43;;;;;;;8.55;5.90;;;14.80;99.90;;;;;;5055165;28;20053;-85
2021/08/30 06:49:11;;;;;;;9.90;6.82;;;14.90;99.90;;;;;;5055131;28;20124;-85
2021/08/30 06:51:38;;;;;;;10.05;7.35;;;14.90;99.90;;;;;;5054999;28;20067;-85
2021/08/30 06:54:05;;;;;;;9.70;7.10;;;14.90;99.90;;;;;;5054779;28;20045;-85
2021/08/30 06:56:32;;;;;;;9.13;6.88;;;15.00;99.90;;;;;;5055045;28;20055;-86
2021/08/30 06:59:00;;;;;;;10.20;7.05;;;15.00;99.90;;;;;;5055031;28;20056;-85
2021/08/30 07:01:27;;;;;;;9.70;6.80;;;15.00;99.90;;;;;;5054857;28;20049;-85
2021/08/30 07:03:54;;;;;;;8.40;6.63;;;15.00;99.90;;;;;;5054841;28;20071;-85
2021/08/30 07:06:22;;;;;;;11.60;6.88;;;15.10;99.90;;;;;;5054555;28;20048;-85
2021/08/30 07:08:49;;;;;;;8.52;6.18;;;15.10;99.90;;;;;;5054683;28;20045;-85
2021/08/30 07:11:16;;;;;;;10.13;6.30;;;15.20;99.90;;;;;;5054748;28;20055;-85
2021/08/30 07:13:43;;;;;;;9.30;6.70;;;15.20;99.90;;;;;;5054018;28;20053;-86
2021/08/30 07:16:10;;;;;;;9.52;6.70;;;15.20;99.90;;;;;;5054181;28;20049;-86
2021/08/30 07:18:37;;;;;;;10.63;6.68;;;15.20;99.90;;;;;;5054476;28;20402;-84
2021/08/30 07:21:04;;;;;;;9.43;6.88;;;15.20;99.90;;;;;;5054801;28;20079;-85
2021/08/30 07:23:35;;;;;;;9.48;6.55;;;15.20;99.90;;;;;;5054743;28;20044;-85
2021/08/30 07:26:02;;;;;;;8.45;5.78;;;15.20;99.90;;;;;;5054620;28;20067;-85
2021/08/30 07:28:29;;;;;;;8.40;5.93;;;15.30;99.90;;;;;;5054285;28;20041;-85
2021/08/30 07:30:56;;;;;;;8.77;6.15;;;15.30;99.90;;;;;;5054360;28;20055;-86
2021/08/30 07:33:23;;;;;;;11.23;6.90;;;15.40;99.90;;;;;;5054355;28;20067;-86
2021/08/30 07:35:50;;;;;;;9.77;6.38;;;15.40;99.90;;;;;;5054450;28;20045;-84
2021/08/30 07:38:17;;;;;;;9.45;6.82;;;15.40;99.90;;;;;;5054225;28;20069;-86
2021/08/30 07:40:46;;;;;;;8.63;6.18;;;15.50;99.90;;;;;;5054284;28;20056;-86
2021/08/30 07:43:13;;;;;;;8.85;6.00;;;15.50;99.90;;;;;;5054160;28;20055;-86
2021/08/30 07:45:40;;;;;;;8.02;6.07;;;15.50;99.90;;;;;;5054145;28;20496;-87
2021/08/30 07:48:07;;;;;;;9.60;6.70;;;15.50;99.90;;;;;;5054344;28;20053;-86
2021/08/30 07:50:35;;;;;;;11.20;7.40;;;15.50;99.90;;;;;;5054990;28;20049;-86
2021/08/30 07:53:02;;;;;;;9.23;6.70;;;15.50;99.90;;;;;;5054605;28;20041;-86
2021/08/30 07:55:34;;;;;;;9.60;6.85;;;15.40;99.90;;;;;;5055515;28;20461;-87
2021/08/30 07:58:03;;;;;;;10.23;7.18;;;15.40;99.90;;;;;;5054231;28;20490;-86
2021/08/30 08:00:30;;;;;;;9.02;6.97;;;15.50;99.90;;;;;;5053639;28;20049;-87
2021/08/30 08:02:57;;;;;;;9.57;6.70;;;15.50;99.90;;;;;;5053871;28;20410;-86
2021/08/30 08:05:25;;;;;;;9.07;6.25;;;15.50;99.90;;;;;;5053582;28;20546;-86
2021/08/30 08:07:52;;;;;;;9.88;6.72;;;15.50;99.90;;;;;;5053936;28;20051;-86
2021/08/30 08:10:19;;;;;;;9.50;7.22;;;15.50;99.90;;;;;;5053529;28;20040;-86
2021/08/30 08:12:46;;;;;;;11.02;8.00;;;15.50;99.90;;;;;;5053495;28;20055;-86
2021/08/30 08:15:15;;;;;;;10.13;7.47;;;15.50;99.90;;;;;;5053512;28;20118;-86
2021/08/30 08:17:42;;;;;;;10.85;7.53;;;15.50;99.90;;;;;;5053688;28;20048;-85
2021/08/30 08:20:10;;;;;;;9.98;7.05;;;15.50;99.90;;;;;;5053473;28;20055;-86
2021/08/30 08:22:37;;;;;;;8.98;6.15;;;15.50;99.90;;;;;;5053383;28;20064;-86
2021/08/30 08:25:06;;;;;;;10.20;6.72;;;15.50;99.90;;;;;;5053231;28;20045;-86
2021/08/30 08:27:34;;;;;;;10.07;6.20;;;15.50;99.90;;;;;;5053222;28;20049;-86
2021/08/30 08:30:01;;;;;;;8.73;5.93;;;15.50;99.90;;;;;;5053275;28;20486;-85
2021/08/30 08:32:29;;;;;;;8.35;6.10;;;15.60;99.90;;;;;;5053004;28;20052;-86
2021/08/30 08:34:56;;;;;;;9.60;5.60;;;15.50;99.90;;;;;;5053125;28;20053;-86
2021/08/30 08:37:24;;;;;;;9.60;6.72;;;15.50;99.90;;;;;;5052955;28;20045;-86
2021/08/30 08:39:51;;;;;;;9.30;6.32;;;15.50;99.90;;;;;;5052985;28;20128;-87
2021/08/30 08:42:18;;;;;;;9.80;6.68;;;15.60;99.90;;;;;;5052799;28;20406;-86
2021/08/30 08:44:47;;;;;;;8.07;5.78;;;15.60;99.90;;;;;;5053065;28;20463;-86
2021/08/30 08:47:17;;;;;;;7.15;4.80;;;15.60;99.90;;;;;;5053107;28;20459;-86
2021/08/30 08:49:50;;;;;;;7.63;5.07;;;15.70;99.90;;;;;;5052896;28;20052;-86
2021/08/30 08:52:19;;;;;;;6.60;4.78;;;15.70;99.90;;;;;;5053131;28;20056;-86
2021/08/30 08:54:46;;;;;;;7.13;4.40;;;15.70;99.90;;;;;;5053321;28;20059;-86
2021/08/30 08:57:14;;;;;;;6.07;4.05;;;15.70;99.90;;;;;;5052679;28;20053;-86
2021/08/30 08:59:41;;;;;;;8.55;4.18;;;15.80;99.90;;;;;;5052751;28;20055;-87
2021/08/30 09:02:08;;;;;;;5.85;3.78;;;15.80;99.90;;;;;;5052889;28;20045;-86
2021/08/30 09:04:37;;;;;;;6.57;3.88;;;15.80;99.90;;;;;;5052772;28;20127;-86
2021/08/30 09:07:13;;;;;;;5.90;3.53;;;15.80;99.90;;;;;;5052668;28;20045;-86
2021/08/30 09:09:42;;;;;;;6.10;3.83;;;15.80;99.90;;;;;;5052781;28;20120;-86
2021/08/30 09:12:20;;;;;;;7.00;3.95;;;15.80;99.90;;;;;;5052736;28;20044;-86
2021/08/30 09:14:47;;;;;;;6.35;4.07;;;15.80;99.90;;;;;;5052751;28;20060;-86
2021/08/30 09:17:14;;;;;;;6.25;3.88;;;15.80;99.90;;;;;;5052603;28;20052;-86
2021/08/30 09:19:42;;;;;;;5.45;3.53;;;15.80;99.90;;;;;;5052502;28;20123;-85
2021/08/30 09:22:13;;;;;;;5.57;3.75;;;15.80;99.90;;;;;;5052467;28;20508;-86
2021/08/30 09:24:40;;;;;;;5.50;3.55;;;15.80;99.90;;;;;;5052832;28;20045;-86
2021/08/30 09:27:10;;;;;;;5.78;3.60;;;15.80;99.90;;;;;;5052636;28;20059;-86
2021/08/30 09:29:40;;;;;;;5.15;3.50;;;15.80;99.90;;;;;;5052858;28;20158;-85
2021/08/30 09:32:10;;;;;;;5.05;3.47;;;15.80;99.90;;;;;;5052466;28;20056;-86
2021/08/30 09:34:40;;;;;;;5.25;3.45;;;15.80;99.90;;;;;;5052447;28;20150;-87
2021/08/30 09:37:18;;;;;;;5.75;3.58;;;15.90;99.90;;;;;;5052812;28;20092;-86
2021/08/30 09:39:46;;;;;;;6.47;3.80;;;16.00;99.90;;;;;;5056203;28;20057;-86
2021/08/30 09:42:14;;;;;;;5.85;3.45;;;16.00;99.90;;;;;;5056478;28;20067;-86
2021/08/30 09:44:41;;;;;;;6.15;3.83;;;16.10;99.90;;;;;;5056152;28;20045;-86
2021/08/30 09:47:13;;;;;;;6.15;3.78;;;16.10;99.90;;;;;;5056476;28;20051;-86
2021/08/30 09:49:42;;;;;;;6.53;4.05;;;16.30;99.90;;;;;;5056340;28;20049;-86
2021/08/30 09:52:09;;;;;;;6.82;4.70;;;16.30;99.90;;;;;;5056059;28;20045;-86
2021/08/30 09:54:38;;;;;;;6.95;4.30;;;16.40;99.90;;;;;;5056231;28;20242;-86
2021/08/30 09:57:06;;;;;;;7.55;4.50;;;16.40;99.90;;;;;;5056120;28;20577;-87
2021/08/30 09:59:34;;;;;;;6.05;4.13;;;16.40;99.90;;;;;;5055984;28;20048;-86
2021/08/30 10:02:02;;;;;;;5.93;3.90;;;16.40;99.90;;;;;;5056169;28;20462;-86
2021/08/30 10:04:30;;;;;;;7.65;5.10;;;16.40;99.90;;;;;;5055976;28;20051;-85
2021/08/30 10:06:57;;;;;;;6.30;4.25;;;16.40;99.90;;;;;;5055891;28;20148;-85
2021/08/30 10:09:26;;;;;;;7.22;4.57;;;16.50;99.90;;;;;;5055849;28;20052;-85
2021/08/30 10:11:55;;;;;;;7.00;4.60;;;16.50;99.90;;;;;;5052478;28;20052;-85
2021/08/30 10:14:26;;;;;;;6.47;4.10;;;16.60;99.90;;;;;;5036024;28;20048;-85
2021/08/30 10:16:55;;;;;;;7.97;5.20;;;16.60;99.90;;;;;;5035952;28;20056;-84
2021/08/30 10:19:27;;;;;;;8.57;5.00;;;16.70;99.90;;;;;;5036509;28;20057;-85
2021/08/30 10:21:55;;;;;;;7.78;5.07;;;16.70;99.90;;;;;;5035352;28;20088;-85
2021/08/30 10:24:22;;;;;;;8.30;5.13;;;16.70;99.90;;;;;;5035097;28;20053;-85
2021/08/30 10:26:50;;;;;;;8.25;5.28;;;16.70;99.90;;;;;;5038279;28;20382;-83
2021/08/30 10:29:19;;;;;;;7.88;5.25;;;16.60;99.90;;;;;;5051049;28;20139;-84
2021/08/30 10:31:49;;;;;;;8.07;5.38;;;16.60;99.90;;;;;;5051574;28;20047;-83
2021/08/30 10:34:28;;;;;;;8.45;5.45;;;16.50;99.90;;;;;;5050024;28;20041;-83
2021/08/30 10:36:56;;;;;;;7.60;4.63;;;16.50;99.90;;;;;;5031489;28;20045;-83
2021/08/30 10:39:23;;;;;;;7.03;4.57;;;16.50;99.90;;;;;;5030894;28;20057;-83
2021/08/30 10:41:50;;;;;;;7.97;5.30;;;16.50;99.90;;;;;;5031616;28;20045;-83
2021/08/30 10:44:22;;;;;;;7.57;5.10;;;16.50;99.90;;;;;;5031427;28;20080;-83
2021/08/30 10:46:53;;;;;;;11.07;5.68;;;16.60;99.90;;;;;;5031395;28;20055;-83
2021/08/30 10:49:27;;;;;;;9.48;5.35;;;16.60;99.90;;;;;;5033866;28;20053;-82
2021/08/30 10:52:07;;;;;;;8.30;5.65;;;16.70;99.90;;;;;;5047612;28;20048;-83
2021/08/30 10:54:34;;;;;;;7.55;5.22;;;16.70;99.90;;;;;;5051881;28;20051;-84
2021/08/30 10:57:04;;;;;;;7.28;4.72;;;16.70;99.90;;;;;;5051462;28;20045;-83
2021/08/30 10:59:32;;;;;;;8.75;5.60;;;16.80;99.90;;;;;;5051236;28;20406;-83
2021/08/30 11:02:03;;;;;;;7.32;5.28;;;16.90;99.90;;;;;;5049760;28;20528;-83
2021/08/30 11:04:36;;;;;;;8.55;5.93;;;16.90;99.90;;;;;;5051381;28;20561;-83
2021/08/30 11:07:08;;;;;;;8.63;5.72;;;16.80;99.90;;;;;;5052063;28;20457;-83
2021/08/30 11:09:35;;;;;;;6.93;5.10;;;16.80;99.90;;;;;;5052254;28;20053;-84
2021/08/30 11:12:10;;;;;;;7.40;5.13;;;16.80;99.90;;;;;;5051829;28;20053;-83
2021/08/30 11:14:39;;;;;;;7.45;5.00;;;16.80;99.90;;;;;;5051958;28;20045;-83
2021/08/30 11:17:09;;;;;;;7.18;4.80;;;16.90;99.90;;;;;;5049642;28;20136;-82
2021/08/30 11:19:36;;;;;;;7.03;4.70;;;16.90;99.90;;;;;;5044341;28;20136;-83
2021/08/30 11:22:08;;;;;;;7.80;5.03;;;16.90;99.90;;;;;;5043130;28;20052;-83
2021/08/30 11:24:38;;;;;;;6.93;4.72;;;16.90;99.90;;;;;;5051405;28;20049;-83
2021/08/30 11:27:08;;;;;;;7.07;4.20;;;16.90;99.90;;;;;;5051804;28;20049;-84
2021/08/30 11:29:43;;;;;;;6.28;4.13;;;16.90;99.90;;;;;;5051601;28;20128;-84
2021/08/30 11:32:11;;;;;;;5.35;3.83;;;16.90;99.90;;;;;;5050871;28;20051;-84
2021/08/30 11:34:39;;;;;;;6.05;4.40;;;17.00;99.90;;;;;;5051356;28;20049;-84
2021/08/30 11:37:08;;;;;;;6.97;4.95;;;17.20;99.90;;;;;;5038926;28;20136;-83
2021/08/30 11:39:38;;;;;;;6.63;4.80;;;17.20;99.90;;;;;;5031420;28;20128;-83
2021/08/30 11:42:08;;;;;;;6.95;4.93;;;17.20;99.90;;;;;;5033184;28;20049;-83
2021/08/30 11:44:39;;;;;;;7.68;4.85;;;17.20;99.90;;;;;;5030943;28;20057;-83
2021/08/30 11:47:11;;;;;;;7.97;5.35;;;17.10;99.90;;;;;;5035961;28;20063;-83
2021/08/30 11:49:41;;;;;;;8.35;5.15;;;17.00;99.90;;;;;;5049736;28;20049;-84
2021/08/30 11:52:09;;;;;;;7.93;5.72;;;17.00;99.90;;;;;;5049755;28;20703;-82
2021/08/30 11:54:39;;;;;;;7.75;5.53;;;17.00;99.90;;;;;;5045849;28;20128;-84
2021/08/30 11:57:09;;;;;;;10.68;5.70;;;17.10;99.90;;;;;;5029929;28;20045;-81
2021/08/30 11:59:38;;;;;;;7.50;5.10;;;17.20;99.90;;;;;;5029679;28;20049;-82
2021/08/30 12:02:10;;;;;;;6.97;5.13;;;17.30;99.90;;;;;;5030955;28;20136;-82
2021/08/30 12:04:39;;;;;;;7.80;5.28;;;17.30;99.90;;;;;;5048958;28;20044;-81
2021/08/30 12:07:09;;;;;;;7.47;5.15;;;17.40;99.90;;;;;;5049854;28;20059;-82
2021/08/30 12:09:43;;;;;;;7.90;5.43;;;17.40;99.90;;;;;;5050421;28;20047;-83
2021/08/30 12:12:19;;;;;;;8.95;5.82;;;17.40;99.90;;;;;;5050802;28;20391;-81
2021/08/30 12:15:02;;;;;;;8.88;5.80;;;17.40;99.90;;;;;;5050416;28;20053;-83
2021/08/30 12:17:33;;;;;;;9.13;5.55;;;17.30;99.90;;;;;;5040126;28;20045;-83
2021/08/30 12:20:05;;;;;;;8.23;5.38;;;17.30;99.90;;;;;;5035434;28;20053;-83
2021/08/30 12:22:35;;;;;;;8.75;5.47;;;17.30;99.90;;;;;;5030272;28;20053;-82
2021/08/30 12:25:09;;;;;;;7.40;5.15;;;17.40;99.90;;;;;;5042375;28;20052;-83
2021/08/30 12:27:39;;;;;;;7.63;5.45;;;17.40;99.90;;;;;;5037764;28;20049;-84
2021/08/30 12:30:17;;;;;;;8.23;5.40;;;17.40;99.90;;;;;;5043992;28;20129;-84
2021/08/30 12:33:06;;;;;;;8.35;5.43;;;17.50;99.90;;;;;;5034995;28;20425;-84
2021/08/30 12:35:36;;;;;;;7.18;5.00;;;17.50;99.90;;;;;;5050074;28;20045;-84
2021/08/30 12:38:07;;;;;;;8.32;5.35;;;17.50;99.90;;;;;;5049756;28;20048;-85
2021/08/30 12:40:40;;;;;;;8.38;5.40;;;17.50;99.90;;;;;;5048605;28;20052;-84
2021/08/30 12:43:08;;;;;;;6.80;4.95;;;17.50;99.90;;;;;;5038825;28;20051;-84
2021/08/30 12:45:35;;;;;;;7.25;5.10;;;17.50;99.90;;;;;;5049575;28;20481;-84
2021/08/30 12:48:05;;;;;;;8.82;6.13;;;17.50;99.90;;;;;;5032920;28;20133;-84
2021/08/30 12:50:33;;;;;;;9.05;5.90;;;17.50;99.90;;;;;;5040423;28;20053;-84
2021/08/30 12:53:00;;;;;;;9.05;5.75;;;17.50;99.90;;;;;;5049197;28;20045;-84
2021/08/30 12:55:27;;;;;;;9.25;6.18;;;17.40;99.90;;;;;;5050016;28;20049;-84
2021/08/30 12:57:54;;;;;;;8.75;6.20;;;17.40;99.90;;;;;;5049324;28;20048;-84